This is the latest recevied weather packets stored in our database for station/object NK7E-2. If no packets are shown the sender has not sent any weather packets the latest 10 day(s).
| Time | Temp. | Humidity | Pressure | Rain* | Wind** | Luminosity | Snow |
|---|---|---|---|---|---|---|---|
| 1777592717 | 27.78° C | 16% | 1014.5 hPa | 0 mm | - | - | - |
| 1777592117 | 27.78° C | 16% | 1014.6 hPa | 0 mm | - | - | - |
| 1777591517 | 27.78° C | 16% | 1014.6 hPa | 0 mm | - | - | - |
| 1777590917 | 27.78° C | 16% | 1014.8 hPa | 0 mm | - | - | - |
| 1777590317 | 27.78° C | 15% | 1015.2 hPa | 0 mm | - | - | - |
| 1777589717 | 28.33° C | 15% | 1015.4 hPa | 0 mm | - | - | - |
| 1777589117 | 28.89° C | 15% | 1015.7 hPa | 0 mm | - | - | - |
| 1777588518 | 28.33° C | 16% | 1015.7 hPa | 0 mm | - | - | - |
| 1777587917 | 27.78° C | 17% | 1015.6 hPa | 0 mm | - | - | - |
| 1777587317 | 27.78° C | 16% | 1015.9 hPa | 0 mm | - | - | - |
| 1777586717 | 28.89° C | 15% | 1016.4 hPa | 0 mm | - | - | - |
| 1777586117 | 28.89° C | 16% | 1016.4 hPa | 0 mm | - | - | - |
| 1777585517 | 28.89° C | 16% | 1016.8 hPa | 0 mm | - | - | - |
| 1777584917 | 28.89° C | 16% | 1016.7 hPa | 0 mm | - | - | - |
| 1777584317 | 28.33° C | 16% | 1016.7 hPa | 0 mm | - | - | - |
| 1777583717 | 28.33° C | 17% | 1016.8 hPa | 0 mm | - | - | - |
| 1777583117 | 28.33° C | 18% | 1016.9 hPa | 0 mm | - | - | - |
| 1777582517 | 27.22° C | 19% | 1016.8 hPa | 0 mm | - | - | - |
| 1777581917 | 27.22° C | 18% | 1017.2 hPa | 0 mm | - | - | - |
| 1777581317 | 27.22° C | 17% | 1017.4 hPa | 0 mm | - | - | - |
| 1777580717 | 26.67° C | 16% | 1017.6 hPa | 0 mm | - | - | - |
| 1777580117 | 26.11° C | 16% | 1017.6 hPa | 0 mm | - | - | - |
| 1777579517 | 26.67° C | 16% | 1018.1 hPa | 0 mm | - | - | - |
| 1777578977 | 26.11° C | 15% | 1018 hPa | 0 mm | - | - | - |
| 1777578317 | 26.11° C | 14% | 1018.1 hPa | 0 mm | - | - | - |
* Rain latest hour (hover to see other rain measurements)
** Current wind speed in m/s (hover to see current wind gust speed)